createdAt,value
2019-02-25T00:00:35.094Z,59.80
2019-02-25T00:03:03.553Z,58.90
2019-02-25T00:05:30.123Z,60.40
2019-02-25T00:07:56.674Z,59.00
2019-02-25T00:10:23.219Z,59.20
2019-02-25T00:12:49.746Z,56.50
2019-02-25T00:15:16.399Z,54.80
2019-02-25T00:17:43.089Z,52.80
2019-02-25T00:20:10.854Z,53.80
2019-02-25T00:22:37.514Z,56.10
2019-02-25T00:25:07.038Z,55.90
2019-02-25T00:27:33.581Z,55.50
2019-02-25T00:30:00.296Z,53.80
2019-02-25T00:32:26.884Z,53.60
2019-02-25T00:34:53.446Z,51.50
2019-02-25T00:37:20.005Z,54.20
2019-02-25T00:39:46.530Z,53.40
2019-02-25T00:42:13.073Z,54.10
2019-02-25T00:44:39.610Z,54.50
2019-02-25T00:47:06.453Z,54.00
2019-02-25T00:49:33.172Z,54.30
2019-02-25T00:51:59.725Z,54.60
2019-02-25T00:54:26.304Z,56.20
2019-02-25T00:56:52.873Z,56.40
2019-02-25T00:59:19.438Z,56.00
2019-02-25T01:01:46.062Z,55.20
2019-02-25T01:04:12.618Z,56.10
2019-02-25T01:06:39.265Z,55.40
2019-02-25T01:09:06.032Z,54.90
2019-02-25T01:11:33.998Z,59.90
2019-02-25T01:14:00.557Z,55.30
2019-02-25T01:16:27.073Z,54.60
2019-02-25T01:18:53.620Z,55.40
2019-02-25T01:21:20.240Z,55.20
2019-02-25T01:23:48.983Z,60.00
2019-02-25T01:26:15.598Z,60.00
2019-02-25T01:28:42.139Z,62.70
2019-02-25T01:31:09.682Z,59.60
2019-02-25T01:33:36.219Z,59.30
2019-02-25T01:36:02.901Z,59.50
2019-02-25T01:38:29.426Z,58.70
2019-02-25T01:40:55.978Z,63.40
2019-02-25T01:43:22.537Z,67.50
2019-02-25T01:45:49.069Z,63.40
2019-02-25T01:48:15.616Z,61.70
2019-02-25T01:50:42.168Z,60.90
2019-02-25T01:53:08.800Z,61.20
2019-02-25T01:55:35.467Z,58.70
2019-02-25T01:58:02.126Z,58.80
2019-02-25T02:00:28.740Z,61.00
2019-02-25T02:02:55.326Z,60.00
2019-02-25T02:05:21.985Z,57.20
2019-02-25T02:07:48.549Z,56.90
2019-02-25T02:10:15.913Z,58.20
2019-02-25T02:12:42.682Z,57.20
2019-02-25T02:15:14.873Z,55.50
2019-02-25T02:17:42.525Z,55.00
2019-02-25T02:20:11.284Z,56.20
2019-02-25T02:22:37.915Z,56.40
2019-02-25T02:25:06.401Z,55.40
2019-02-25T02:27:32.932Z,56.90
2019-02-25T02:29:59.481Z,61.60
2019-02-25T02:32:26.036Z,61.80
2019-02-25T02:34:52.600Z,57.80
2019-02-25T02:37:19.160Z,53.90
2019-02-25T02:39:45.728Z,59.90
2019-02-25T02:42:14.281Z,59.00
2019-02-25T02:44:42.610Z,57.80
2019-02-25T02:47:27.828Z,57.30
2019-02-25T02:49:55.349Z,58.40
2019-02-25T02:52:21.896Z,59.80
2019-02-25T02:54:48.531Z,61.00
2019-02-25T02:57:15.179Z,59.10
2019-02-25T02:59:41.723Z,63.50
2019-02-25T03:02:08.288Z,62.40
2019-02-25T03:04:34.807Z,58.90
2019-02-25T03:07:01.346Z,60.30
2019-02-25T03:09:27.985Z,63.00
2019-02-25T03:11:54.535Z,60.30
2019-02-25T03:14:21.095Z,59.50
2019-02-25T03:16:47.647Z,59.30
2019-02-25T03:19:14.370Z,61.70
2019-02-25T03:21:40.925Z,59.60
2019-02-25T03:24:08.489Z,58.00
2019-02-25T03:26:35.128Z,57.90
2019-02-25T03:29:01.740Z,62.70
2019-02-25T03:31:28.294Z,61.30
2019-02-25T03:33:54.867Z,65.60
2019-02-25T03:36:21.414Z,69.00
2019-02-25T03:38:47.961Z,63.00
2019-02-25T03:41:14.527Z,60.90
2019-02-25T03:43:41.187Z,59.00
2019-02-25T03:46:07.935Z,58.80
2019-02-25T03:48:34.697Z,58.20
2019-02-25T03:51:01.441Z,58.90
2019-02-25T03:53:28.211Z,60.40
2019-02-25T03:55:54.981Z,62.20
2019-02-25T03:58:21.744Z,66.00
2019-02-25T04:00:48.451Z,63.10
2019-02-25T04:03:15.155Z,63.10
2019-02-25T04:05:41.897Z,62.70
2019-02-25T04:08:08.847Z,67.90
2019-02-25T04:10:36.484Z,66.30
2019-02-25T04:13:04.417Z,62.50
2019-02-25T04:15:37.842Z,64.10
2019-02-25T04:18:04.576Z,64.60
2019-02-25T04:20:31.525Z,68.20
2019-02-25T04:22:59.566Z,67.60
2019-02-25T04:25:27.996Z,67.50
2019-02-25T04:27:54.735Z,63.30
2019-02-25T04:30:21.489Z,66.90
2019-02-25T04:32:48.163Z,67.80
2019-02-25T04:35:15.016Z,66.40
2019-02-25T04:37:41.859Z,66.70
2019-02-25T04:40:11.391Z,64.90
2019-02-25T04:42:38.243Z,63.70
2019-02-25T04:45:13.475Z,63.60
2019-02-25T04:47:40.837Z,62.20
2019-02-25T04:50:09.197Z,62.30
2019-02-25T04:52:37.653Z,62.80
2019-02-25T04:55:08.269Z,62.00
2019-02-25T04:57:35.017Z,61.60
2019-02-25T05:00:09.783Z,61.80
2019-02-25T05:02:36.810Z,61.20
2019-02-25T05:05:05.121Z,63.30
2019-02-25T05:07:33.556Z,63.20
2019-02-25T05:09:59.991Z,63.60
2019-02-25T05:12:26.411Z,65.10
2019-02-25T05:14:52.894Z,66.90
2019-02-25T05:17:19.297Z,66.70
2019-02-25T05:19:45.744Z,66.00
2019-02-25T05:22:12.191Z,62.20
2019-02-25T05:24:38.619Z,62.00
2019-02-25T05:27:05.059Z,61.20
2019-02-25T05:29:31.506Z,62.10
2019-02-25T05:31:57.935Z,60.30
2019-02-25T05:34:24.369Z,60.30
2019-02-25T05:36:50.945Z,60.70
2019-02-25T05:39:17.363Z,61.40
2019-02-25T05:41:43.807Z,62.50
2019-02-25T05:44:10.250Z,61.00
2019-02-25T05:46:37.689Z,62.70
2019-02-25T05:49:04.150Z,63.90
2019-02-25T05:51:30.594Z,63.80
2019-02-25T05:53:57.024Z,62.70
2019-02-25T05:56:23.484Z,63.70
2019-02-25T05:58:49.932Z,61.10
2019-02-25T06:01:16.382Z,63.10
2019-02-25T06:03:42.852Z,63.60
2019-02-25T06:06:09.294Z,64.50
2019-02-25T06:08:36.809Z,62.70
2019-02-25T06:11:03.229Z,60.80
2019-02-25T06:13:29.670Z,61.80
2019-02-25T06:15:57.079Z,62.10
2019-02-25T06:18:23.528Z,61.70
2019-02-25T06:20:50.102Z,60.50
2019-02-25T06:23:16.537Z,60.60
2019-02-25T06:25:43.970Z,60.70
2019-02-25T06:28:10.428Z,61.30
2019-02-25T06:30:36.951Z,61.40
2019-02-25T06:33:03.427Z,62.00
2019-02-25T06:35:29.834Z,62.40
2019-02-25T06:37:56.280Z,61.40
2019-02-25T06:40:22.743Z,62.50
2019-02-25T06:42:50.295Z,63.50
2019-02-25T06:45:19.840Z,63.20
2019-02-25T06:47:46.416Z,62.60
2019-02-25T06:50:13.061Z,62.20
2019-02-25T06:52:39.473Z,60.20
2019-02-25T06:55:14.349Z,60.30
2019-02-25T06:57:40.881Z,59.80
2019-02-25T07:00:14.581Z,60.10
2019-02-25T07:02:41.261Z,59.50
2019-02-25T07:05:13.072Z,58.70
2019-02-25T07:07:53.428Z,57.20
2019-02-25T07:10:39.684Z,56.20
2019-02-25T07:13:08.048Z,56.80
2019-02-25T07:15:52.731Z,57.00
2019-02-25T07:18:27.247Z,57.70
2019-02-25T07:20:55.572Z,56.20
2019-02-25T07:23:23.925Z,54.50
2019-02-25T07:25:55.233Z,56.00
2019-02-25T07:28:23.581Z,56.60
2019-02-25T07:30:54.930Z,55.90
2019-02-25T07:33:28.989Z,55.10
2019-02-25T07:35:57.342Z,54.40
2019-02-25T07:38:25.685Z,53.70
2019-02-25T07:41:09.212Z,54.50
2019-02-25T07:43:52.745Z,53.80
2019-02-25T07:46:21.088Z,54.30
2019-02-25T07:48:55.485Z,54.30
2019-02-25T07:51:40.421Z,51.80
2019-02-25T07:54:09.772Z,51.00
2019-02-25T07:56:41.204Z,50.50
2019-02-25T07:59:18.384Z,49.70
2019-02-25T08:02:03.390Z,49.10
2019-02-25T08:04:31.777Z,49.10
2019-02-25T08:07:03.159Z,49.90
2019-02-25T08:09:31.504Z,50.50
2019-02-25T08:12:05.975Z,50.40
2019-02-25T08:14:53.232Z,49.20
2019-02-25T08:17:21.553Z,49.90
2019-02-25T08:20:02.832Z,50.50
2019-02-25T08:22:31.149Z,48.80
2019-02-25T08:24:59.499Z,50.70
2019-02-25T08:27:36.844Z,48.80
2019-02-25T08:30:20.280Z,48.90
2019-02-25T08:32:51.738Z,48.60
2019-02-25T08:36:01.416Z,47.30
2019-02-25T08:38:46.433Z,47.70
2019-02-25T08:41:32.328Z,47.60
2019-02-25T08:44:00.687Z,45.90
2019-02-25T08:46:29.153Z,44.80
2019-02-25T08:49:01.360Z,44.00
2019-02-25T08:51:27.901Z,46.10
2019-02-25T08:53:54.344Z,45.00
2019-02-25T08:56:21.913Z,46.90
2019-02-25T08:58:48.430Z,44.60
2019-02-25T09:01:15.545Z,43.00
2019-02-25T09:03:43.229Z,43.60
2019-02-25T09:06:09.821Z,42.40
2019-02-25T09:08:36.377Z,43.00
2019-02-25T09:11:02.927Z,43.30
2019-02-25T09:13:30.550Z,43.60
2019-02-25T09:15:56.985Z,42.40
2019-02-25T09:18:23.466Z,42.90
2019-02-25T09:20:49.879Z,42.90
2019-02-25T09:23:16.307Z,43.30
2019-02-25T09:25:42.764Z,42.80
2019-02-25T09:28:10.165Z,44.10
2019-02-25T09:30:36.687Z,43.00
2019-02-25T09:33:03.224Z,44.40
2019-02-25T09:35:29.750Z,42.70
2019-02-25T09:37:56.209Z,43.30
2019-02-25T09:40:22.652Z,45.90
2019-02-25T09:42:49.095Z,44.60
2019-02-25T09:45:16.354Z,43.70
2019-02-25T09:47:42.927Z,45.10
2019-02-25T09:50:13.998Z,43.50
2019-02-25T09:52:40.576Z,44.60
2019-02-25T09:55:09.253Z,43.60
2019-02-25T09:57:35.706Z,43.70
2019-02-25T10:00:02.964Z,44.60
2019-02-25T10:02:31.105Z,43.00
2019-02-25T10:04:57.553Z,44.30
2019-02-25T10:07:24.035Z,45.80
2019-02-25T10:09:50.494Z,43.10
2019-02-25T10:12:16.925Z,44.40
2019-02-25T10:14:43.483Z,43.30
2019-02-25T10:17:09.930Z,42.80
2019-02-25T10:19:36.370Z,43.00
2019-02-25T10:22:02.962Z,42.40
2019-02-25T10:24:29.413Z,43.60
2019-02-25T10:26:56.866Z,42.90
2019-02-25T10:29:23.314Z,42.60
2019-02-25T10:31:49.780Z,42.00
2019-02-25T10:34:17.948Z,41.30
2019-02-25T10:36:46.011Z,42.10
2019-02-25T10:39:13.118Z,42.90
2019-02-25T10:41:40.973Z,43.10
2019-02-25T10:44:08.482Z,43.80
2019-02-25T10:46:36.067Z,45.70
2019-02-25T10:49:11.148Z,46.60
2019-02-25T10:51:31.053Z,46.60
2019-02-25T10:53:57.546Z,43.90
2019-02-25T10:56:27.685Z,43.20
2019-02-25T10:58:54.235Z,41.70
2019-02-25T11:01:22.318Z,43.90
2019-02-25T11:03:49.975Z,39.60
2019-02-25T11:06:17.524Z,39.90
2019-02-25T11:08:46.331Z,41.70
2019-02-25T11:11:18.812Z,39.00
2019-02-25T11:13:45.927Z,37.90
2019-02-25T11:16:14.002Z,36.40
2019-02-25T11:18:41.879Z,36.60
2019-02-25T11:21:08.870Z,37.20
2019-02-25T11:23:36.568Z,38.20
2019-02-25T11:26:03.075Z,39.70
2019-02-25T11:28:31.656Z,37.70
2019-02-25T11:30:58.107Z,35.50
2019-02-25T11:33:25.252Z,36.60
2019-02-25T11:35:52.893Z,34.40
2019-02-25T11:38:19.362Z,32.70
2019-02-25T11:40:45.884Z,33.20
2019-02-25T11:43:13.265Z,31.70
2019-02-25T11:45:40.674Z,28.80
2019-02-25T11:48:07.132Z,27.40
2019-02-25T11:50:33.602Z,24.10
2019-02-25T11:53:00.049Z,22.80
2019-02-25T11:55:26.683Z,19.80
2019-02-25T11:57:53.146Z,19.30
2019-02-25T12:00:22.765Z,19.40
2019-02-25T12:02:49.248Z,20.90
2019-02-25T12:05:16.900Z,17.70
2019-02-25T12:07:43.458Z,19.10
2019-02-25T12:10:12.900Z,21.70
2019-02-25T12:12:39.346Z,18.90
2019-02-25T12:15:09.509Z,17.30
2019-02-25T12:17:37.039Z,17.60
2019-02-25T12:20:05.478Z,18.50
2019-02-25T12:22:31.925Z,16.40
2019-02-25T12:24:58.385Z,15.90
2019-02-25T12:27:24.811Z,17.60
2019-02-25T12:29:51.289Z,19.60
2019-02-25T12:32:17.705Z,19.40
2019-02-25T12:34:44.148Z,17.10
2019-02-25T12:37:10.615Z,20.10
2019-02-25T12:39:37.068Z,20.20
2019-02-25T12:42:03.618Z,19.90
2019-02-25T12:44:30.075Z,17.60
2019-02-25T12:46:56.497Z,16.40
2019-02-25T12:49:22.968Z,14.40
2019-02-25T12:51:49.413Z,14.20
2019-02-25T12:54:15.864Z,12.90
2019-02-25T12:56:42.398Z,14.20
2019-02-25T12:59:08.867Z,13.50
2019-02-25T13:01:35.354Z,15.70
2019-02-25T13:04:01.876Z,15.50
2019-02-25T13:06:28.269Z,15.20
2019-02-25T13:08:54.706Z,14.70
2019-02-25T13:11:21.182Z,14.80
2019-02-25T13:13:47.639Z,17.40
2019-02-25T13:16:14.113Z,17.40
2019-02-25T13:18:40.768Z,17.40
2019-02-25T13:21:07.330Z,15.30
2019-02-25T13:23:33.774Z,15.10
2019-02-25T13:26:07.269Z,15.90
2019-02-25T13:28:30.649Z,19.00
2019-02-25T13:30:58.490Z,18.30
2019-02-25T13:33:25.043Z,19.80
2019-02-25T13:35:51.485Z,17.50
2019-02-25T13:38:17.937Z,18.50
2019-02-25T13:40:44.393Z,17.50
2019-02-25T13:43:10.853Z,17.60
2019-02-25T13:45:37.296Z,17.10
2019-02-25T13:48:03.838Z,17.50
2019-02-25T13:50:30.577Z,18.20
2019-02-25T13:52:57.133Z,17.40
2019-02-25T13:55:23.586Z,17.10
2019-02-25T13:57:50.032Z,18.00
2019-02-25T14:00:22.454Z,17.10
2019-02-25T14:02:49.000Z,17.10
2019-02-25T14:05:15.561Z,17.50
2019-02-25T14:07:42.081Z,17.70
2019-02-25T14:10:12.301Z,19.90
2019-02-25T14:12:38.832Z,19.20
2019-02-25T14:15:07.481Z,19.10
2019-02-25T14:17:34.332Z,19.30
2019-02-25T14:20:00.997Z,19.60
2019-02-25T14:22:27.454Z,19.10
2019-02-25T14:24:53.912Z,22.50
2019-02-25T14:27:20.493Z,26.30
2019-02-25T14:29:48.773Z,28.00
2019-02-25T14:32:15.586Z,25.30
2019-02-25T14:34:44.375Z,24.90
2019-02-25T14:37:11.039Z,23.80
2019-02-25T14:39:38.272Z,23.30
2019-02-25T14:42:06.831Z,24.10
2019-02-25T14:44:35.834Z,23.90
2019-02-25T14:47:05.279Z,25.00
2019-02-25T14:49:32.740Z,23.40
2019-02-25T14:51:59.655Z,24.70
2019-02-25T14:54:26.738Z,23.80
2019-02-25T14:56:54.844Z,24.50
2019-02-25T14:59:22.672Z,24.80
2019-02-25T15:01:49.124Z,28.90
2019-02-25T15:04:15.564Z,31.20
2019-02-25T15:06:42.002Z,33.60
2019-02-25T15:09:11.923Z,34.80
2019-02-25T15:11:37.948Z,34.00
2019-02-25T15:14:05.930Z,35.10
2019-02-25T15:16:32.709Z,34.90
2019-02-25T15:19:00.620Z,35.80
2019-02-25T15:21:27.393Z,36.20
2019-02-25T15:23:54.045Z,36.60
2019-02-25T15:26:21.621Z,36.90
2019-02-25T15:28:51.677Z,37.40
2019-02-25T15:31:17.443Z,38.10
2019-02-25T15:33:44.012Z,37.40
2019-02-25T15:36:11.520Z,37.40
2019-02-25T15:38:39.228Z,37.50
2019-02-25T15:41:09.029Z,37.80
2019-02-25T15:43:35.300Z,36.70
2019-02-25T15:46:01.820Z,37.10
2019-02-25T15:48:29.042Z,37.10
2019-02-25T15:50:58.605Z,37.60
2019-02-25T15:53:25.552Z,37.90
2019-02-25T15:55:52.427Z,37.30
2019-02-25T15:58:19.149Z,37.70
2019-02-25T16:00:46.289Z,38.20
2019-02-25T16:03:13.691Z,38.70
2019-02-25T16:05:42.475Z,38.30
2019-02-25T16:08:10.484Z,38.80
2019-02-25T16:10:37.227Z,38.60
2019-02-25T16:13:05.978Z,39.00
2019-02-25T16:15:32.450Z,39.60
2019-02-25T16:17:59.223Z,39.30
2019-02-25T16:20:27.052Z,39.50
2019-02-25T16:22:56.271Z,39.80
2019-02-25T16:25:23.122Z,40.20
2019-02-25T16:27:52.204Z,40.20
2019-02-25T16:30:21.336Z,40.20
2019-02-25T16:32:48.413Z,40.60
2019-02-25T16:35:15.093Z,39.90
2019-02-25T16:37:42.710Z,40.40
2019-02-25T16:40:17.626Z,40.40
2019-02-25T16:42:44.371Z,40.80
2019-02-25T16:45:32.407Z,40.90
2019-02-25T16:47:55.217Z,41.00
2019-02-25T16:50:23.274Z,41.10
2019-02-25T16:52:49.902Z,42.70
2019-02-25T16:55:22.720Z,42.30
2019-02-25T16:57:50.171Z,42.90
2019-02-25T17:00:29.994Z,41.70
2019-02-25T17:03:01.368Z,42.40
2019-02-25T17:05:26.395Z,43.10
2019-02-25T17:07:53.154Z,44.20
2019-02-25T17:10:24.093Z,44.60
2019-02-25T17:12:50.030Z,44.50
2019-02-25T17:15:18.921Z,45.50
2019-02-25T17:17:45.670Z,46.10
2019-02-25T17:20:14.214Z,47.60
2019-02-25T17:22:40.739Z,45.50
2019-02-25T17:25:11.979Z,45.10
2019-02-25T17:27:38.922Z,44.90
2019-02-25T17:30:17.454Z,46.80
2019-02-25T17:32:46.116Z,46.90
2019-02-25T17:35:14.584Z,47.30
2019-02-25T17:37:41.355Z,47.30
2019-02-25T17:40:15.717Z,48.20
2019-02-25T17:42:42.407Z,48.70
2019-02-25T17:45:12.098Z,48.60
2019-02-25T17:47:39.670Z,49.20
2019-02-25T17:50:12.230Z,48.90
2019-02-25T17:52:40.463Z,48.70
2019-02-25T17:55:13.718Z,49.50
2019-02-25T17:57:40.309Z,49.60
2019-02-25T18:00:13.320Z,50.00
2019-02-25T18:02:41.089Z,50.50
2019-02-25T18:05:07.758Z,50.90
2019-02-25T18:07:37.633Z,51.00
2019-02-25T18:10:09.837Z,51.70
2019-02-25T18:12:38.642Z,51.70
2019-02-25T18:15:24.155Z,51.90
2019-02-25T18:17:51.480Z,51.80
2019-02-25T18:20:21.447Z,51.20
2019-02-25T18:22:50.801Z,51.50
2019-02-25T18:25:18.476Z,52.40
2019-02-25T18:27:47.809Z,53.00
2019-02-25T18:30:16.004Z,53.30
2019-02-25T18:32:42.869Z,53.60
2019-02-25T18:35:11.771Z,54.20
2019-02-25T18:37:39.713Z,54.60
2019-02-25T18:40:11.670Z,55.40
2019-02-25T18:42:40.749Z,57.10
2019-02-25T18:45:11.615Z,56.60
2019-02-25T18:47:39.548Z,57.50
2019-02-25T18:50:15.399Z,57.60
2019-02-25T18:52:40.932Z,56.80
2019-02-25T18:55:11.142Z,57.50
2019-02-25T18:57:37.925Z,58.20
2019-02-25T19:00:08.194Z,58.00
2019-02-25T19:02:38.022Z,58.70
2019-02-25T19:05:07.140Z,59.10
2019-02-25T19:07:34.316Z,58.10
2019-02-25T19:10:00.859Z,57.10
2019-02-25T19:12:27.620Z,56.40
2019-02-25T19:14:55.765Z,56.70
2019-02-25T19:17:23.166Z,61.50
2019-02-25T19:19:51.643Z,63.20
2019-02-25T19:22:19.536Z,64.10
2019-02-25T19:24:47.250Z,63.60
2019-02-25T19:27:14.414Z,65.00
2019-02-25T19:29:40.959Z,65.30
2019-02-25T19:32:07.643Z,66.10
2019-02-25T19:34:34.083Z,67.30
2019-02-25T19:37:02.357Z,66.80
2019-02-25T19:39:29.346Z,66.20
2019-02-25T19:41:56.766Z,65.60
2019-02-25T19:44:24.344Z,65.40
2019-02-25T19:46:53.160Z,65.20
2019-02-25T19:49:20.676Z,64.50
2019-02-25T19:51:47.989Z,63.60
2019-02-25T19:54:16.795Z,65.10
2019-02-25T19:56:45.587Z,65.80
2019-02-25T19:59:12.105Z,66.60
2019-02-25T20:01:39.444Z,68.70
2019-02-25T20:04:07.036Z,69.40
2019-02-25T20:06:34.330Z,68.50
2019-02-25T20:09:04.473Z,68.00
2019-02-25T20:11:32.933Z,68.70
2019-02-25T20:14:01.557Z,69.00
2019-02-25T20:16:29.822Z,68.30
2019-02-25T20:18:58.024Z,68.60
2019-02-25T20:21:26.659Z,69.30
2019-02-25T20:23:55.894Z,70.30
2019-02-25T20:26:24.247Z,69.70
2019-02-25T20:28:50.747Z,69.50
2019-02-25T20:31:17.304Z,69.30
2019-02-25T20:33:43.757Z,69.80
2019-02-25T20:36:10.211Z,69.70
2019-02-25T20:38:37.191Z,69.60
2019-02-25T20:41:05.383Z,70.00
2019-02-25T20:43:32.529Z,70.00
2019-02-25T20:46:01.115Z,70.10
2019-02-25T20:48:27.596Z,69.90
2019-02-25T20:50:54.195Z,70.40
2019-02-25T20:53:20.773Z,70.20
2019-02-25T20:55:50.690Z,69.80
2019-02-25T20:58:18.731Z,70.90
2019-02-25T21:00:46.610Z,71.80
2019-02-25T21:03:16.143Z,72.10
2019-02-25T21:05:42.446Z,73.00
2019-02-25T21:08:09.021Z,72.50
2019-02-25T21:10:35.793Z,72.90
2019-02-25T21:13:02.467Z,73.30
2019-02-25T21:15:28.857Z,74.60
2019-02-25T21:17:57.691Z,75.50
2019-02-25T21:20:26.219Z,74.30
2019-02-25T21:22:52.824Z,74.10
2019-02-25T21:25:24.430Z,74.60
2019-02-25T21:27:49.005Z,74.40
2019-02-25T21:30:19.279Z,74.70
2019-02-25T21:32:47.407Z,74.60
2019-02-25T21:35:17.842Z,74.30
2019-02-25T21:37:47.316Z,75.50
2019-02-25T21:40:20.102Z,75.20
2019-02-25T21:42:49.274Z,75.90
2019-02-25T21:45:17.993Z,76.40
2019-02-25T21:47:43.867Z,75.90
2019-02-25T21:50:12.443Z,76.90
2019-02-25T21:52:41.688Z,75.90
2019-02-25T21:55:11.526Z,75.00
2019-02-25T21:57:38.034Z,75.10
2019-02-25T22:00:10.313Z,75.90
2019-02-25T22:02:39.226Z,77.00
2019-02-25T22:05:09.828Z,76.70
2019-02-25T22:07:36.080Z,77.10
2019-02-25T22:10:13.836Z,77.00
2019-02-25T22:12:42.153Z,77.00
2019-02-25T22:15:12.942Z,76.70
2019-02-25T22:17:40.779Z,76.20
2019-02-25T22:20:13.925Z,76.40
2019-02-25T22:22:40.345Z,77.80
2019-02-25T22:25:11.796Z,77.80
2019-02-25T22:27:41.254Z,78.10
2019-02-25T22:30:11.689Z,78.20
2019-02-25T22:32:39.033Z,78.80
2019-02-25T22:35:10.054Z,80.70
2019-02-25T22:37:36.787Z,80.00
2019-02-25T22:40:10.297Z,79.50
2019-02-25T22:42:37.823Z,79.00
2019-02-25T22:45:09.522Z,78.60
2019-02-25T22:47:36.131Z,78.70
2019-02-25T22:50:06.436Z,80.00
2019-02-25T22:52:35.575Z,78.50
2019-02-25T22:55:05.927Z,81.50
2019-02-25T22:57:30.451Z,82.00
2019-02-25T22:59:56.901Z,81.80
2019-02-25T23:02:27.317Z,81.80
2019-02-25T23:04:53.619Z,82.40
2019-02-25T23:07:20.678Z,81.10
2019-02-25T23:09:49.962Z,80.60
2019-02-25T23:12:17.936Z,81.60
2019-02-25T23:14:45.180Z,82.20
2019-02-25T23:17:13.577Z,82.20
2019-02-25T23:19:40.940Z,82.40
2019-02-25T23:22:08.144Z,83.70
2019-02-25T23:24:36.931Z,84.20
2019-02-25T23:27:03.150Z,84.20
2019-02-25T23:29:29.589Z,82.80
2019-02-25T23:31:56.173Z,82.90
2019-02-25T23:34:22.830Z,82.80
2019-02-25T23:36:49.799Z,82.30
2019-02-25T23:39:17.855Z,83.20
2019-02-25T23:41:46.227Z,83.30
2019-02-25T23:44:13.266Z,83.20
2019-02-25T23:46:40.748Z,83.10
2019-02-25T23:49:07.172Z,83.20
2019-02-25T23:51:33.612Z,83.00
2019-02-25T23:54:00.052Z,82.70
2019-02-25T23:56:27.446Z,83.00
2019-02-25T23:58:54.752Z,82.80
